createdAt,value
2019-02-28T00:00:56.015Z,72.00
2019-02-28T00:03:27.384Z,67.20
2019-02-28T00:05:58.618Z,61.47
2019-02-28T00:08:29.823Z,70.00
2019-02-28T00:11:02.113Z,77.20
2019-02-28T00:13:33.871Z,77.00
2019-02-28T00:16:05.162Z,72.57
2019-02-28T00:18:36.631Z,79.57
2019-02-28T00:21:07.929Z,70.87
2019-02-28T00:23:39.098Z,77.00
2019-02-28T00:26:11.658Z,84.63
2019-02-28T00:28:44.186Z,101.83
2019-02-28T00:31:15.499Z,92.17
2019-02-28T00:33:46.793Z,93.63
2019-02-28T00:36:19.153Z,91.33
2019-02-28T00:38:50.984Z,77.40
2019-02-28T00:41:22.150Z,80.47
2019-02-28T00:43:53.389Z,76.17
2019-02-28T00:46:24.568Z,71.87
2019-02-28T00:48:55.768Z,74.63
2019-02-28T00:51:29.684Z,82.87
2019-02-28T00:54:00.865Z,78.07
2019-02-28T00:56:32.421Z,76.13
2019-02-28T00:59:03.638Z,75.97
2019-02-28T01:01:34.884Z,78.00
2019-02-28T01:04:09.026Z,70.97
2019-02-28T01:06:41.808Z,73.70
2019-02-28T01:09:13.086Z,74.00
2019-02-28T01:11:45.550Z,65.93
2019-02-28T01:14:17.098Z,71.10
2019-02-28T01:16:50.150Z,74.07
2019-02-28T01:19:21.094Z,74.97
2019-02-28T01:21:55.416Z,77.33
2019-02-28T01:24:25.027Z,72.63
2019-02-28T01:26:56.219Z,78.43
2019-02-28T01:29:27.333Z,68.77
2019-02-28T01:31:58.569Z,81.50
2019-02-28T01:34:32.192Z,69.37
2019-02-28T01:37:02.522Z,67.77
2019-02-28T01:39:33.729Z,74.63
2019-02-28T01:42:04.974Z,76.57
2019-02-28T01:44:36.515Z,70.43
2019-02-28T01:47:07.733Z,79.80
2019-02-28T01:49:38.931Z,72.73
2019-02-28T01:52:10.807Z,65.80
2019-02-28T01:54:42.215Z,68.10
2019-02-28T01:57:13.410Z,72.13
2019-02-28T01:59:45.662Z,71.03
2019-02-28T02:02:16.788Z,70.70
2019-02-28T02:04:48.289Z,70.27
2019-02-28T02:07:20.960Z,70.03
2019-02-28T02:09:52.522Z,76.07
2019-02-28T02:12:23.700Z,70.87
2019-02-28T02:14:54.897Z,79.60
2019-02-28T02:17:26.092Z,72.33
2019-02-28T02:19:57.363Z,88.47
2019-02-28T02:22:28.591Z,86.20
2019-02-28T02:25:03.052Z,87.00
2019-02-28T02:27:32.544Z,77.50
2019-02-28T02:30:03.720Z,82.13
2019-02-28T02:32:38.667Z,85.23
2019-02-28T02:35:08.490Z,79.63
2019-02-28T02:37:39.764Z,84.00
2019-02-28T02:40:11.477Z,75.67
2019-02-28T02:42:47.535Z,76.70
2019-02-28T02:45:16.521Z,71.77
2019-02-28T02:47:47.715Z,74.13
2019-02-28T02:50:18.904Z,73.50
2019-02-28T02:52:50.077Z,66.70
2019-02-28T02:55:27.727Z,73.47
2019-02-28T02:57:54.216Z,77.17
2019-02-28T03:00:25.384Z,76.03
2019-02-28T03:02:56.593Z,86.20
2019-02-28T03:05:34.987Z,66.73
2019-02-28T03:08:01.126Z,72.53
2019-02-28T03:10:32.424Z,70.37
2019-02-28T03:13:04.891Z,69.83
2019-02-28T03:15:36.411Z,71.80
2019-02-28T03:18:07.559Z,77.40
2019-02-28T03:20:41.332Z,80.37
2019-02-28T03:23:11.544Z,77.20
2019-02-28T03:25:42.684Z,86.97
2019-02-28T03:28:14.097Z,80.90
2019-02-28T03:30:45.454Z,68.60
2019-02-28T03:33:27.390Z,72.83
2019-02-28T03:35:49.437Z,69.23
2019-02-28T03:38:20.585Z,72.30
2019-02-28T03:40:51.803Z,75.77
2019-02-28T03:43:23.201Z,84.77
2019-02-28T03:45:54.357Z,81.20
2019-02-28T03:48:25.501Z,75.37
2019-02-28T03:50:56.795Z,79.33
2019-02-28T03:53:27.994Z,80.77
2019-02-28T03:55:59.262Z,78.23
2019-02-28T03:58:30.556Z,80.97
2019-02-28T04:01:08.965Z,80.57
2019-02-28T04:03:34.789Z,71.60
2019-02-28T04:06:06.138Z,70.07
2019-02-28T04:08:37.322Z,80.77
2019-02-28T04:11:08.501Z,79.80
2019-02-28T04:13:39.666Z,86.80
2019-02-28T04:16:10.931Z,84.63
2019-02-28T04:18:45.890Z,80.03
2019-02-28T04:21:14.848Z,84.53
2019-02-28T04:23:46.033Z,102.93
2019-02-28T04:26:17.194Z,123.60
2019-02-28T04:28:53.522Z,117.50
2019-02-28T04:31:21.225Z,92.17
2019-02-28T04:33:53.498Z,71.97
2019-02-28T04:36:24.583Z,69.07
2019-02-28T04:38:55.709Z,62.53
2019-02-28T04:41:26.899Z,63.93
2019-02-28T04:43:58.135Z,56.63
2019-02-28T04:46:31.794Z,56.40
2019-02-28T04:49:02.178Z,60.33
2019-02-28T04:51:33.315Z,65.10
2019-02-28T04:54:04.437Z,62.60
2019-02-28T04:56:35.631Z,64.57
2019-02-28T04:59:06.755Z,61.83
2019-02-28T05:01:37.982Z,62.50
2019-02-28T05:04:09.187Z,69.50
2019-02-28T05:06:40.418Z,61.70
2019-02-28T05:09:14.343Z,53.67
2019-02-28T05:11:44.442Z,53.37
2019-02-28T05:14:15.620Z,51.10
2019-02-28T05:16:47.472Z,50.17
2019-02-28T05:19:19.552Z,54.63
2019-02-28T05:21:53.498Z,51.63
2019-02-28T05:24:23.400Z,52.53
2019-02-28T05:26:57.340Z,49.20
2019-02-28T05:29:27.404Z,47.63
2019-02-28T05:32:01.076Z,53.97
2019-02-28T05:34:31.254Z,49.43
2019-02-28T05:37:02.443Z,46.00
2019-02-28T05:39:33.675Z,45.60
2019-02-28T05:42:04.814Z,48.27
2019-02-28T05:44:37.382Z,51.77
2019-02-28T05:47:10.423Z,56.90
2019-02-28T05:49:42.068Z,44.47
2019-02-28T05:52:13.214Z,58.00
2019-02-28T05:54:47.221Z,64.80
2019-02-28T05:57:18.203Z,63.37
2019-02-28T05:59:49.431Z,59.83
2019-02-28T06:02:22.413Z,64.17
2019-02-28T06:04:53.400Z,58.93
2019-02-28T06:07:25.984Z,58.23
2019-02-28T06:09:57.303Z,62.93
2019-02-28T06:12:28.376Z,51.47
2019-02-28T06:15:03.112Z,54.03
2019-02-28T06:17:33.391Z,46.37
2019-02-28T06:20:05.436Z,43.07
2019-02-28T06:22:36.610Z,40.23
2019-02-28T06:25:08.055Z,40.13
2019-02-28T06:27:41.947Z,40.10
2019-02-28T06:30:12.769Z,37.87
2019-02-28T06:32:44.898Z,41.13
2019-02-28T06:35:20.263Z,37.87
2019-02-28T06:37:49.642Z,34.47
2019-02-28T06:40:20.898Z,35.07
2019-02-28T06:42:52.097Z,31.53
2019-02-28T06:45:23.204Z,36.47
2019-02-28T06:47:54.357Z,32.97
2019-02-28T06:50:25.540Z,29.77
2019-02-28T06:52:59.344Z,27.03
2019-02-28T06:55:29.552Z,26.50
2019-02-28T06:58:00.754Z,26.37
2019-02-28T07:00:31.936Z,24.20
2019-02-28T07:03:04.385Z,23.00
2019-02-28T07:05:36.581Z,23.80
2019-02-28T07:08:07.954Z,23.43
2019-02-28T07:10:41.417Z,24.53
2019-02-28T07:13:11.969Z,24.67
2019-02-28T07:15:43.029Z,21.23
2019-02-28T07:18:14.274Z,24.37
2019-02-28T07:20:47.156Z,23.17
2019-02-28T07:23:18.152Z,19.80
2019-02-28T07:25:49.291Z,18.63
2019-02-28T07:28:20.458Z,19.57
2019-02-28T07:30:51.575Z,18.03
2019-02-28T07:33:22.739Z,15.83
2019-02-28T07:35:54.019Z,15.80
2019-02-28T07:38:25.580Z,15.27
2019-02-28T07:40:58.038Z,13.90
2019-02-28T07:43:29.245Z,16.03
2019-02-28T07:46:00.389Z,12.13
2019-02-28T07:48:31.600Z,11.50
2019-02-28T07:51:02.768Z,13.97
2019-02-28T07:53:33.888Z,11.53
2019-02-28T07:56:07.157Z,16.57
2019-02-28T07:58:37.892Z,13.40
2019-02-28T08:01:09.025Z,12.97
2019-02-28T08:03:43.405Z,17.37
2019-02-28T08:06:13.039Z,16.33
2019-02-28T08:08:45.272Z,17.33
2019-02-28T08:11:19.880Z,15.80
2019-02-28T08:13:49.406Z,15.40
2019-02-28T08:16:20.589Z,18.77
2019-02-28T08:18:52.454Z,15.67
2019-02-28T08:21:23.963Z,15.43
2019-02-28T08:23:55.216Z,17.73
2019-02-28T08:26:26.426Z,18.47
2019-02-28T08:28:57.666Z,16.77
2019-02-28T08:31:31.982Z,17.23
2019-02-28T08:34:01.814Z,18.43
2019-02-28T08:36:33.026Z,15.87
2019-02-28T08:39:08.824Z,17.37
2019-02-28T08:41:39.525Z,17.13
2019-02-28T08:44:10.738Z,19.43
2019-02-28T08:46:43.526Z,20.40
2019-02-28T08:49:14.726Z,19.77
2019-02-28T08:51:45.953Z,21.27
2019-02-28T08:54:17.140Z,20.63
2019-02-28T08:56:49.757Z,21.80
2019-02-28T08:59:22.706Z,24.07
2019-02-28T09:01:54.255Z,22.70
2019-02-28T09:04:25.486Z,25.10
2019-02-28T09:06:56.719Z,29.03
2019-02-28T09:09:27.931Z,25.23
2019-02-28T09:11:59.139Z,24.93
2019-02-28T09:14:30.403Z,26.37
2019-02-28T09:17:01.707Z,26.43
2019-02-28T09:19:36.040Z,27.27
2019-02-28T09:22:05.707Z,26.20
2019-02-28T09:24:36.937Z,28.70
2019-02-28T09:27:08.217Z,32.87
2019-02-28T09:29:39.652Z,28.53
2019-02-28T09:32:13.444Z,29.03
2019-02-28T09:34:43.840Z,27.70
2019-02-28T09:37:15.082Z,24.70
2019-02-28T09:39:46.307Z,28.90
2019-02-28T09:42:17.507Z,27.73
2019-02-28T09:44:49.716Z,27.27
2019-02-28T09:47:23.365Z,28.83
2019-02-28T09:49:53.644Z,29.47
2019-02-28T09:52:24.875Z,27.57
2019-02-28T09:54:56.271Z,26.37
2019-02-28T09:57:30.234Z,31.10
2019-02-28T10:00:01.566Z,30.77
2019-02-28T10:02:34.180Z,31.80
2019-02-28T10:05:07.571Z,31.43
2019-02-28T10:07:38.834Z,28.90
2019-02-28T10:10:13.933Z,29.13
2019-02-28T10:12:45.233Z,27.67
2019-02-28T10:15:20.376Z,26.87
2019-02-28T10:17:51.599Z,27.93
2019-02-28T10:20:27.194Z,29.13
2019-02-28T10:22:57.636Z,25.27
2019-02-28T10:25:29.873Z,24.60
2019-02-28T10:28:02.645Z,22.53
2019-02-28T10:30:34.152Z,23.53
2019-02-28T10:33:05.442Z,23.10
2019-02-28T10:35:37.607Z,22.40
2019-02-28T10:38:09.031Z,23.73
2019-02-28T10:40:40.239Z,22.03
2019-02-28T10:43:12.212Z,23.40
2019-02-28T10:45:46.001Z,22.63
2019-02-28T10:48:17.416Z,26.30
2019-02-28T10:50:48.742Z,21.23
2019-02-28T10:53:19.939Z,24.80
2019-02-28T10:55:51.280Z,25.47
2019-02-28T10:58:22.471Z,21.77
2019-02-28T11:00:53.680Z,18.07
2019-02-28T11:03:24.831Z,17.53
2019-02-28T11:05:56.359Z,22.20
2019-02-28T11:08:27.574Z,20.40
2019-02-28T11:10:59.420Z,20.60
2019-02-28T11:13:32.188Z,24.43
2019-02-28T11:16:03.697Z,19.63
2019-02-28T11:18:36.440Z,23.27
2019-02-28T11:21:08.049Z,20.87
2019-02-28T11:23:39.669Z,18.37
2019-02-28T11:26:10.964Z,19.97
2019-02-28T11:28:42.197Z,20.30
2019-02-28T11:31:16.286Z,19.07
2019-02-28T11:33:46.519Z,19.23
2019-02-28T11:36:17.685Z,18.40
2019-02-28T11:38:48.905Z,21.23
2019-02-28T11:41:20.197Z,20.33
2019-02-28T11:43:51.521Z,18.40
2019-02-28T11:46:22.742Z,17.00
2019-02-28T11:48:55.093Z,16.67
2019-02-28T11:51:27.331Z,15.00
2019-02-28T11:53:58.598Z,13.20
2019-02-28T11:56:29.787Z,16.37
2019-02-28T11:59:01.097Z,20.47
2019-02-28T12:01:32.516Z,15.30
2019-02-28T12:04:03.696Z,14.57
2019-02-28T12:06:35.464Z,16.63
2019-02-28T12:09:08.161Z,16.87
2019-02-28T12:11:39.549Z,16.83
2019-02-28T12:14:10.896Z,18.93
2019-02-28T12:16:42.127Z,14.90
2019-02-28T12:19:15.882Z,25.80
2019-02-28T12:21:46.205Z,18.03
2019-02-28T12:24:17.425Z,18.83
2019-02-28T12:26:49.416Z,18.10
2019-02-28T12:29:21.533Z,18.40
2019-02-28T12:31:52.737Z,16.90
2019-02-28T12:34:24.027Z,19.13
2019-02-28T12:36:55.130Z,20.33
2019-02-28T12:39:26.319Z,20.37
2019-02-28T12:41:59.523Z,17.60
2019-02-28T12:44:30.368Z,19.03
2019-02-28T12:47:03.352Z,18.73
2019-02-28T12:49:34.727Z,16.13
2019-02-28T12:52:05.911Z,19.63
2019-02-28T12:54:37.146Z,18.13
2019-02-28T12:57:08.347Z,20.97
2019-02-28T12:59:41.792Z,19.90
2019-02-28T13:02:12.752Z,20.60
2019-02-28T13:04:43.959Z,17.40
2019-02-28T13:07:15.141Z,18.87
2019-02-28T13:09:48.258Z,19.50
2019-02-28T13:12:19.129Z,16.50
2019-02-28T13:14:50.326Z,16.97
2019-02-28T13:17:21.506Z,18.23
2019-02-28T13:19:53.157Z,18.07
2019-02-28T13:22:25.591Z,18.57
2019-02-28T13:24:56.801Z,16.57
2019-02-28T13:27:27.991Z,19.57
2019-02-28T13:29:59.105Z,21.40
2019-02-28T13:32:33.768Z,15.77
2019-02-28T13:35:07.208Z,18.87
2019-02-28T13:37:37.511Z,19.60
2019-02-28T13:40:09.535Z,20.10
2019-02-28T13:42:42.317Z,20.70
2019-02-28T13:45:22.232Z,18.43
2019-02-28T13:47:48.175Z,19.67
2019-02-28T13:50:22.076Z,14.90
2019-02-28T13:52:54.211Z,18.03
2019-02-28T13:55:25.598Z,15.13
2019-02-28T13:57:56.835Z,21.37
2019-02-28T14:00:29.574Z,15.57
2019-02-28T14:03:09.143Z,15.50
2019-02-28T14:05:40.816Z,17.00
2019-02-28T14:08:11.297Z,16.80
2019-02-28T14:10:41.589Z,20.90
2019-02-28T14:13:12.890Z,16.77
2019-02-28T14:15:47.885Z,18.83
2019-02-28T14:18:17.314Z,24.20
2019-02-28T14:20:49.202Z,19.77
2019-02-28T14:23:21.526Z,20.00
2019-02-28T14:25:53.013Z,21.20
2019-02-28T14:28:24.347Z,16.43
2019-02-28T14:30:57.611Z,18.10
2019-02-28T14:33:28.488Z,18.07
2019-02-28T14:35:59.762Z,21.17
2019-02-28T14:38:32.792Z,23.23
2019-02-28T14:41:03.906Z,24.50
2019-02-28T14:43:35.136Z,22.87
2019-02-28T14:46:06.565Z,22.13
2019-02-28T14:48:39.900Z,21.67
2019-02-28T14:51:10.749Z,24.80
2019-02-28T14:53:42.020Z,20.67
2019-02-28T14:56:13.320Z,20.70
2019-02-28T14:58:44.764Z,24.00
2019-02-28T15:01:17.752Z,21.17
2019-02-28T15:03:48.922Z,18.30
2019-02-28T15:06:20.099Z,20.93
2019-02-28T15:08:51.961Z,25.20
2019-02-28T15:11:23.529Z,23.97
2019-02-28T15:13:54.754Z,30.97
2019-02-28T15:16:26.647Z,26.50
2019-02-28T15:18:59.265Z,23.40
2019-02-28T15:21:30.595Z,27.20
2019-02-28T15:24:01.812Z,21.30
2019-02-28T15:26:33.229Z,21.50
2019-02-28T15:29:04.443Z,27.97
2019-02-28T15:31:35.676Z,27.17
2019-02-28T15:34:06.916Z,23.80
2019-02-28T15:36:39.280Z,26.93
2019-02-28T15:39:10.525Z,23.40
2019-02-28T15:41:41.893Z,27.10
2019-02-28T15:44:13.110Z,24.93
2019-02-28T15:46:47.372Z,25.97
2019-02-28T15:49:17.612Z,23.77
2019-02-28T15:51:48.985Z,33.93
2019-02-28T15:54:21.715Z,28.60
2019-02-28T15:56:55.435Z,28.80
2019-02-28T15:59:25.989Z,32.20
2019-02-28T16:01:57.234Z,34.47
2019-02-28T16:04:28.673Z,27.40
2019-02-28T16:06:59.848Z,33.97
2019-02-28T16:09:37.989Z,32.77
2019-02-28T16:12:46.611Z,34.37
2019-02-28T16:15:39.377Z,35.63
2019-02-28T16:18:18.512Z,34.37
2019-02-28T16:20:53.534Z,37.23
2019-02-28T16:23:31.102Z,37.67
2019-02-28T16:26:05.325Z,34.90
2019-02-28T16:28:44.135Z,33.87
2019-02-28T16:31:21.371Z,38.57
2019-02-28T16:34:08.018Z,37.93
2019-02-28T16:36:32.105Z,39.03
2019-02-28T16:39:04.740Z,38.93
2019-02-28T16:41:37.649Z,37.57
2019-02-28T16:44:09.025Z,36.33
2019-02-28T16:46:40.278Z,42.90
2019-02-28T16:49:11.521Z,37.20
2019-02-28T16:51:42.750Z,42.03
2019-02-28T16:54:15.550Z,40.30
2019-02-28T16:56:46.813Z,44.97
2019-02-28T16:59:18.025Z,38.50
2019-02-28T17:01:51.321Z,44.17
2019-02-28T17:04:22.110Z,42.40
2019-02-28T17:06:55.498Z,42.67
2019-02-28T17:09:36.627Z,43.53
2019-02-28T17:12:18.265Z,38.57
2019-02-28T17:14:49.603Z,38.50
2019-02-28T17:17:46.949Z,37.30
2019-02-28T17:20:18.851Z,41.77
2019-02-28T17:22:50.092Z,37.77
2019-02-28T17:25:21.686Z,45.73
2019-02-28T17:28:15.268Z,38.90
2019-02-28T17:31:19.821Z,39.73
2019-02-28T17:33:51.791Z,41.17
2019-02-28T17:36:23.245Z,42.30
2019-02-28T17:38:54.778Z,41.67
2019-02-28T17:41:26.035Z,46.43
2019-02-28T17:44:41.026Z,47.23
2019-02-28T17:47:37.560Z,46.47
2019-02-28T17:51:00.331Z,51.53
2019-02-28T17:54:17.223Z,46.27
2019-02-28T17:57:06.838Z,46.60
2019-02-28T18:00:30.014Z,45.43
2019-02-28T18:03:53.396Z,45.37
2019-02-28T18:06:50.129Z,44.90
2019-02-28T18:09:34.328Z,49.23
2019-02-28T18:12:57.399Z,51.50
2019-02-28T18:15:50.790Z,47.70
2019-02-28T18:18:55.698Z,52.37
2019-02-28T18:21:54.771Z,48.07
2019-02-28T18:25:37.338Z,50.13
2019-02-28T18:28:49.088Z,52.00
2019-02-28T18:31:22.066Z,55.33
2019-02-28T18:34:05.810Z,60.23
2019-02-28T18:36:40.258Z,63.60
2019-02-28T18:39:12.317Z,65.00
2019-02-28T18:41:44.117Z,61.80
2019-02-28T18:44:15.486Z,63.97
2019-02-28T18:46:48.784Z,66.20
2019-02-28T18:49:20.524Z,64.50
2019-02-28T18:51:56.143Z,60.23
2019-02-28T18:54:30.169Z,56.90
2019-02-28T18:57:01.992Z,65.20
2019-02-28T18:59:33.701Z,56.83
2019-02-28T19:02:05.794Z,58.33
2019-02-28T19:04:37.647Z,64.43
2019-02-28T19:07:08.918Z,59.97
2019-02-28T19:09:40.389Z,61.40
2019-02-28T19:12:12.884Z,56.10
2019-02-28T19:14:44.286Z,57.73
2019-02-28T19:17:15.621Z,57.27
2019-02-28T19:19:46.849Z,59.67
2019-02-28T19:22:20.669Z,58.60
2019-02-28T19:24:52.401Z,60.17
2019-02-28T19:27:31.735Z,61.63
2019-02-28T19:30:02.982Z,63.57
2019-02-28T19:32:35.576Z,65.07
2019-02-28T19:35:06.879Z,65.87
2019-02-28T19:37:38.168Z,58.93
2019-02-28T19:40:10.185Z,66.87
2019-02-28T19:42:41.563Z,70.13
2019-02-28T19:45:13.896Z,71.07
2019-02-28T19:47:45.183Z,74.77
2019-02-28T19:50:16.307Z,71.33
2019-02-28T19:52:47.597Z,71.07
2019-02-28T19:55:18.886Z,71.20
2019-02-28T19:57:52.790Z,73.00
2019-02-28T20:00:24.047Z,70.60
2019-02-28T20:02:55.279Z,73.57
2019-02-28T20:05:26.602Z,69.10
2019-02-28T20:07:58.335Z,66.57
2019-02-28T20:10:29.785Z,65.20
2019-02-28T20:13:01.225Z,61.50
2019-02-28T20:15:34.341Z,66.63
2019-02-28T20:18:05.554Z,62.80
2019-02-28T20:20:37.245Z,66.83
2019-02-28T20:23:08.703Z,60.23
2019-02-28T20:25:39.895Z,70.80
2019-02-28T20:28:11.091Z,74.30
2019-02-28T20:30:42.417Z,73.63
2019-02-28T20:33:13.668Z,82.17
2019-02-28T20:35:44.985Z,87.70
2019-02-28T20:38:17.539Z,97.70
2019-02-28T20:40:49.145Z,94.70
2019-02-28T20:43:20.964Z,94.97
2019-02-28T20:45:52.730Z,96.13
2019-02-28T20:48:24.067Z,94.17
2019-02-28T20:50:55.935Z,101.53
2019-02-28T20:53:27.113Z,101.10
2019-02-28T20:55:58.312Z,110.87
2019-02-28T20:58:29.699Z,108.57
2019-02-28T21:01:01.256Z,101.50
2019-02-28T21:03:32.508Z,110.30
2019-02-28T21:06:03.886Z,108.80
2019-02-28T21:08:35.266Z,110.63
2019-02-28T21:11:07.426Z,119.10
2019-02-28T21:13:38.788Z,112.37
2019-02-28T21:16:10.536Z,111.70
2019-02-28T21:18:42.033Z,115.87
2019-02-28T21:21:13.391Z,118.43
2019-02-28T21:23:44.839Z,113.53
2019-02-28T21:26:16.055Z,115.30
2019-02-28T21:28:47.284Z,113.03
2019-02-28T21:31:18.497Z,110.33
2019-02-28T21:33:49.801Z,109.30
2019-02-28T21:36:21.087Z,108.30
2019-02-28T21:38:52.370Z,114.23
2019-02-28T21:41:23.545Z,112.07
2019-02-28T21:43:54.878Z,104.00
2019-02-28T21:46:26.096Z,105.53
2019-02-28T21:48:57.335Z,104.20
2019-02-28T21:51:28.584Z,111.67
2019-02-28T21:53:59.784Z,112.77
2019-02-28T21:56:31.033Z,109.90
2019-02-28T21:59:02.236Z,104.10
2019-02-28T22:01:33.448Z,99.47
2019-02-28T22:04:04.641Z,99.63
2019-02-28T22:06:35.909Z,101.97
2019-02-28T22:09:08.359Z,105.77
2019-02-28T22:11:40.652Z,99.67
2019-02-28T22:14:12.042Z,99.10
2019-02-28T22:16:43.945Z,94.40
2019-02-28T22:19:15.361Z,107.80
2019-02-28T22:21:46.509Z,100.77
2019-02-28T22:24:18.242Z,102.33
2019-02-28T22:26:49.459Z,94.37
2019-02-28T22:29:20.651Z,100.63
2019-02-28T22:32:29.046Z,95.47
2019-02-28T22:35:08.935Z,98.63
2019-02-28T22:37:40.305Z,88.63
2019-02-28T22:40:11.634Z,97.00
2019-02-28T22:42:43.384Z,104.03
2019-02-28T22:45:15.725Z,107.67
2019-02-28T22:47:47.363Z,104.93
2019-02-28T22:50:18.948Z,98.23
2019-02-28T22:52:50.617Z,97.20
2019-02-28T22:55:22.223Z,90.93
2019-02-28T22:57:53.507Z,93.03
2019-02-28T23:00:43.581Z,106.13
2019-02-28T23:03:15.077Z,103.40
